Time;durP1;ratioP1;P1;durP2;ratioP2;P2;SDS_P1;SDS_P2;PMS_P1;PMS_P2;Temp;Humidity;BMP_temperature;BMP_pressure;BME280_temperature;BME280_humidity;BME280_pressure;Samples;Min_cycle;Max_cycle;Signal;HPM_P1;HPM_P2
2023/03/03 00:01:04;;;;;;;31.63;19.90;;;4.10;99.90;;;;;;5096058;28;20207;-59
2023/03/03 00:03:32;;;;;;;26.13;17.90;;;4.00;99.90;;;;;;5096280;28;20228;-58
2023/03/03 00:06:00;;;;;;;29.87;18.93;;;3.80;99.90;;;;;;5095798;28;20207;-58
2023/03/03 00:08:27;;;;;;;31.57;19.50;;;3.80;99.90;;;;;;5096469;28;20204;-59
2023/03/03 00:10:54;;;;;;;28.53;18.77;;;3.70;99.90;;;;;;5096158;28;20211;-59
2023/03/03 00:13:22;;;;;;;30.70;19.87;;;3.60;99.90;;;;;;5095981;28;20234;-58
2023/03/03 00:15:50;;;;;;;28.43;18.17;;;3.60;99.90;;;;;;5095311;28;20703;-57
2023/03/03 00:18:22;;;;;;;28.50;19.23;;;3.60;99.90;;;;;;5095832;28;20200;-58
2023/03/03 00:20:53;;;;;;;26.77;19.20;;;3.60;99.90;;;;;;5095640;28;20661;-58
2023/03/03 00:23:28;;;;;;;29.30;18.53;;;3.60;99.90;;;;;;5095474;28;20226;-58
2023/03/03 00:25:55;;;;;;;27.57;18.50;;;3.60;99.90;;;;;;5095639;28;20211;-58
2023/03/03 00:28:26;;;;;;;31.87;20.23;;;3.60;99.90;;;;;;5095585;28;20207;-58
2023/03/03 00:30:54;;;;;;;31.70;20.67;;;3.50;99.90;;;;;;5095520;28;20204;-57
2023/03/03 00:33:31;;;;;;;37.30;21.50;;;3.40;99.90;;;;;;5095602;28;20236;-58
2023/03/03 00:35:59;;;;;;;33.87;21.77;;;3.40;99.90;;;;;;5095193;28;20245;-57
2023/03/03 00:38:28;;;;;;;33.43;21.03;;;3.40;99.90;;;;;;5095286;28;20204;-57
2023/03/03 00:40:54;;;;;;;34.20;20.67;;;3.40;99.90;;;;;;5095163;28;20204;-58
2023/03/03 00:43:23;;;;;;;32.07;20.47;;;3.30;99.90;;;;;;5095487;28;20228;-59
2023/03/03 00:45:51;;;;;;;34.07;21.23;;;3.30;99.90;;;;;;5095132;28;20204;-58
2023/03/03 00:48:25;;;;;;;38.93;22.00;;;3.30;99.90;;;;;;5097780;28;20263;-58
2023/03/03 00:50:53;;;;;;;32.47;20.13;;;3.10;99.90;;;;;;5097247;28;20466;-58
2023/03/03 00:53:22;;;;;;;32.20;19.67;;;3.00;99.90;;;;;;5096267;28;20243;-58
2023/03/03 00:55:51;;;;;;;33.27;20.23;;;3.00;99.90;;;;;;5095664;28;20228;-58
2023/03/03 00:58:20;;;;;;;35.13;20.50;;;3.00;99.90;;;;;;5097090;28;20235;-58
2023/03/03 01:00:48;;;;;;;31.60;20.10;;;2.90;99.90;;;;;;5094273;28;20623;-58
2023/03/03 01:03:16;;;;;;;35.97;21.57;;;2.90;99.90;;;;;;5094679;28;20612;-58
2023/03/03 01:05:43;;;;;;;31.33;20.27;;;2.90;99.90;;;;;;5095175;28;20309;-58
2023/03/03 01:08:10;;;;;;;28.80;19.97;;;3.00;99.90;;;;;;5095396;28;20314;-58
2023/03/03 01:10:40;;;;;;;31.50;19.77;;;2.90;99.90;;;;;;5095385;28;20205;-58
2023/03/03 01:13:10;;;;;;;30.40;19.97;;;2.80;99.90;;;;;;5094423;28;20750;-57
2023/03/03 01:15:38;;;;;;;31.20;20.30;;;2.60;99.90;;;;;;5095206;28;20668;-57
2023/03/03 01:18:06;;;;;;;29.43;19.10;;;2.60;99.90;;;;;;5095290;28;20286;-57
2023/03/03 01:20:33;;;;;;;31.47;19.97;;;2.60;99.90;;;;;;5095125;28;20204;-56
2023/03/03 01:23:00;;;;;;;34.43;20.33;;;2.50;99.90;;;;;;5095564;28;20220;-57
2023/03/03 01:25:27;;;;;;;31.83;20.50;;;2.40;99.90;;;;;;5096081;28;20207;-57
2023/03/03 01:27:53;;;;;;;32.40;20.07;;;2.40;99.90;;;;;;5094748;28;20205;-57
2023/03/03 01:30:22;;;;;;;31.37;20.37;;;2.40;99.90;;;;;;5094885;28;20215;-58
2023/03/03 01:32:49;;;;;;;34.10;20.70;;;2.30;99.90;;;;;;5095381;28;20224;-57
2023/03/03 01:35:16;;;;;;;33.10;21.13;;;2.20;99.90;;;;;;5094607;28;20204;-57
2023/03/03 01:37:43;;;;;;;32.67;20.03;;;2.20;99.90;;;;;;5095359;28;20228;-58
2023/03/03 01:40:16;;;;;;;30.07;19.80;;;2.10;99.90;;;;;;5095315;28;20197;-58
2023/03/03 01:42:43;;;;;;;29.20;19.93;;;2.10;99.90;;;;;;5094698;28;20235;-58
2023/03/03 01:45:17;;;;;;;31.57;19.73;;;2.10;99.90;;;;;;5094351;28;20212;-58
2023/03/03 01:47:51;;;;;;;32.37;20.00;;;2.10;99.90;;;;;;5094609;28;20253;-57
2023/03/03 01:50:30;;;;;;;28.93;19.27;;;2.00;99.90;;;;;;5094144;28;20215;-57
2023/03/03 01:52:59;;;;;;;32.10;20.13;;;2.00;99.90;;;;;;5094181;28;20742;-58
2023/03/03 01:55:31;;;;;;;31.77;20.07;;;2.00;99.90;;;;;;5093979;28;20219;-57
2023/03/03 01:58:02;;;;;;;37.80;21.40;;;1.90;99.90;;;;;;5094378;28;20224;-57
2023/03/03 02:00:30;;;;;;;30.63;19.73;;;1.90;99.90;;;;;;5098542;28;20212;-58
2023/03/03 02:02:58;;;;;;;33.17;21.27;;;1.90;99.90;;;;;;5097749;28;20224;-58
2023/03/03 02:05:25;;;;;;;31.10;20.00;;;1.80;99.90;;;;;;5097383;28;20212;-58
2023/03/03 02:07:52;;;;;;;33.73;21.20;;;1.90;99.90;;;;;;5097873;28;20212;-58
2023/03/03 02:10:21;;;;;;;32.73;20.80;;;1.90;99.90;;;;;;5097784;28;20212;-58
2023/03/03 02:12:50;;;;;;;31.77;19.60;;;1.90;99.90;;;;;;5097422;28;20236;-57
2023/03/03 02:15:19;;;;;;;35.80;20.83;;;1.80;99.90;;;;;;5097406;28;20204;-57
2023/03/03 02:17:48;;;;;;;32.57;20.33;;;1.90;99.90;;;;;;5097363;28;20227;-58
2023/03/03 02:20:23;;;;;;;31.10;20.00;;;1.90;99.90;;;;;;5097145;28;20223;-57
2023/03/03 02:22:57;;;;;;;33.63;21.50;;;2.00;99.90;;;;;;5097430;28;20242;-58
2023/03/03 02:25:30;;;;;;;34.17;20.80;;;2.00;99.90;;;;;;5097952;28;20208;-58
2023/03/03 02:27:58;;;;;;;29.67;20.33;;;2.00;99.90;;;;;;5097318;28;20668;-58
2023/03/03 02:30:25;;;;;;;32.80;20.20;;;1.90;99.90;;;;;;5098046;28;20215;-57
2023/03/03 02:32:52;;;;;;;32.20;20.47;;;1.80;99.90;;;;;;5097296;28;20228;-58
2023/03/03 02:35:32;;;;;;;37.80;21.97;;;1.70;99.90;;;;;;5097579;28;20207;-58
2023/03/03 02:38:07;;;;;;;34.53;20.80;;;1.70;99.90;;;;;;5096716;28;20231;-57
2023/03/03 02:40:40;;;;;;;33.27;21.43;;;1.70;99.90;;;;;;5096783;28;20291;-58
2023/03/03 02:43:09;;;;;;;32.50;20.07;;;1.80;99.90;;;;;;5096410;28;20538;-58
2023/03/03 02:45:42;;;;;;;32.53;21.10;;;1.80;99.90;;;;;;5096509;28;20204;-58
2023/03/03 02:48:09;;;;;;;32.77;22.07;;;1.80;99.90;;;;;;5097037;28;20200;-58
2023/03/03 02:50:36;;;;;;;34.13;22.30;;;1.70;99.90;;;;;;5098428;28;20208;-58
2023/03/03 02:53:03;;;;;;;34.47;20.33;;;1.70;99.90;;;;;;5097464;28;20236;-56
2023/03/03 02:55:30;;;;;;;33.33;21.20;;;1.70;99.90;;;;;;5094673;28;20208;-56
2023/03/03 02:57:57;;;;;;;34.77;22.13;;;1.70;99.90;;;;;;5095561;28;20228;-56
2023/03/03 03:00:25;;;;;;;36.17;21.30;;;1.70;99.90;;;;;;5094566;28;20682;-56
2023/03/03 03:02:52;;;;;;;37.83;24.17;;;1.80;99.90;;;;;;5094477;28;20228;-56
2023/03/03 03:05:18;;;;;;;36.60;23.33;;;1.90;99.90;;;;;;5094255;28;20200;-55
2023/03/03 03:07:45;;;;;;;36.17;22.43;;;1.90;99.90;;;;;;5094371;28;20464;-56
2023/03/03 03:10:12;;;;;;;33.30;21.67;;;1.90;99.90;;;;;;5093530;28;20208;-56
2023/03/03 03:12:38;;;;;;;37.80;22.53;;;1.90;99.90;;;;;;5094062;28;20231;-55
2023/03/03 03:15:08;;;;;;;34.33;22.13;;;1.90;99.90;;;;;;5094224;28;20207;-55
2023/03/03 03:17:37;;;;;;;36.97;22.17;;;1.90;99.90;;;;;;5093922;28;20723;-55
2023/03/03 03:20:04;;;;;;;42.03;23.37;;;2.00;99.90;;;;;;5094001;28;20203;-57
2023/03/03 03:22:31;;;;;;;39.07;22.90;;;2.00;99.90;;;;;;5093731;28;20224;-55
2023/03/03 03:24:58;;;;;;;34.80;22.10;;;2.10;99.90;;;;;;5093807;28;20211;-56
2023/03/03 03:27:24;;;;;;;35.53;21.83;;;2.10;99.90;;;;;;5094002;28;20569;-55
2023/03/03 03:29:51;;;;;;;33.83;21.40;;;2.10;99.90;;;;;;5093679;28;20676;-55
2023/03/03 03:32:18;;;;;;;33.87;21.27;;;2.10;99.90;;;;;;5093692;28;20224;-55
2023/03/03 03:34:46;;;;;;;33.17;21.13;;;2.00;99.90;;;;;;5093771;28;20204;-55
2023/03/03 03:37:13;;;;;;;35.37;22.80;;;2.20;99.90;;;;;;5093263;28;20688;-55
2023/03/03 03:39:39;;;;;;;32.50;21.30;;;2.20;99.90;;;;;;5093884;28;20261;-55
2023/03/03 03:42:06;;;;;;;33.97;20.77;;;2.30;99.90;;;;;;5093674;28;20224;-57
2023/03/03 03:44:33;;;;;;;33.80;21.70;;;2.30;99.90;;;;;;5093940;28;20204;-56
2023/03/03 03:47:00;;;;;;;37.20;22.13;;;2.40;99.90;;;;;;5093694;28;20205;-56
2023/03/03 03:49:26;;;;;;;32.60;21.83;;;2.40;99.90;;;;;;5094049;28;20204;-57
2023/03/03 03:51:54;;;;;;;33.33;22.00;;;2.40;99.90;;;;;;5093445;28;20204;-55
2023/03/03 03:54:21;;;;;;;39.77;22.30;;;2.40;99.90;;;;;;5094461;28;20204;-56
2023/03/03 03:56:48;;;;;;;34.63;21.67;;;2.50;99.90;;;;;;5093510;28;20216;-55
2023/03/03 03:59:15;;;;;;;32.33;21.10;;;2.60;99.90;;;;;;5093587;28;20697;-57
2023/03/03 04:01:41;;;;;;;33.53;21.90;;;2.70;99.90;;;;;;5093659;28;20200;-56
2023/03/03 04:04:08;;;;;;;31.73;20.67;;;2.80;99.90;;;;;;5093832;28;20253;-55
2023/03/03 04:06:35;;;;;;;34.73;22.17;;;2.90;99.90;;;;;;5093095;28;20213;-57
2023/03/03 04:09:03;;;;;;;37.23;22.40;;;3.00;99.90;;;;;;5093942;28;20204;-56
2023/03/03 04:11:30;;;;;;;38.93;22.87;;;3.10;99.90;;;;;;5093604;28;20212;-56
2023/03/03 04:13:56;;;;;;;35.77;21.60;;;3.10;99.90;;;;;;5093586;28;20253;-56
2023/03/03 04:16:23;;;;;;;36.67;23.23;;;3.20;99.90;;;;;;5093248;28;20204;-57
2023/03/03 04:18:50;;;;;;;37.43;21.97;;;3.30;99.90;;;;;;5093209;28;20228;-56
2023/03/03 04:21:17;;;;;;;34.30;21.20;;;3.40;99.90;;;;;;5092959;28;20274;-55
2023/03/03 04:23:44;;;;;;;32.73;22.00;;;3.50;99.90;;;;;;5093611;28;20703;-55
2023/03/03 04:26:12;;;;;;;35.73;21.43;;;3.60;99.90;;;;;;5093738;28;20208;-55
2023/03/03 04:28:39;;;;;;;33.80;21.40;;;3.70;99.90;;;;;;5093640;28;20204;-55
2023/03/03 04:31:05;;;;;;;34.90;22.03;;;3.70;99.90;;;;;;5093898;28;20676;-57
2023/03/03 04:33:32;;;;;;;36.20;23.50;;;3.70;99.90;;;;;;5093282;28;20228;-56
2023/03/03 04:35:59;;;;;;;34.77;22.70;;;3.80;99.90;;;;;;5093163;28;20214;-55
2023/03/03 04:38:26;;;;;;;36.97;23.93;;;3.80;99.90;;;;;;5093378;28;20232;-56
2023/03/03 04:40:53;;;;;;;36.83;23.37;;;3.80;99.90;;;;;;5093285;28;20219;-56
2023/03/03 04:43:21;;;;;;;46.40;28.63;;;3.90;99.90;;;;;;5092861;28;20614;-54
2023/03/03 04:45:48;;;;;;;51.43;31.50;;;4.00;99.90;;;;;;5093148;28;20692;-55
2023/03/03 04:48:14;;;;;;;36.37;25.27;;;4.10;99.90;;;;;;5093255;28;20611;-54
2023/03/03 04:50:41;;;;;;;41.77;24.70;;;4.10;99.90;;;;;;5093196;28;20211;-54
2023/03/03 04:53:08;;;;;;;43.17;24.60;;;4.20;99.90;;;;;;5093011;28;20228;-55
2023/03/03 04:55:36;;;;;;;36.27;23.23;;;4.30;99.90;;;;;;5092800;28;20565;-56
2023/03/03 04:58:03;;;;;;;37.90;23.60;;;4.40;99.90;;;;;;5092804;28;20691;-54
2023/03/03 05:00:31;;;;;;;35.90;23.93;;;4.40;99.90;;;;;;5092950;28;20672;-57
2023/03/03 05:02:58;;;;;;;38.43;23.53;;;4.40;99.90;;;;;;5092767;28;20232;-56
2023/03/03 05:05:25;;;;;;;36.77;23.53;;;4.40;99.90;;;;;;5092725;28;20761;-55
2023/03/03 05:07:52;;;;;;;37.30;23.67;;;4.40;99.90;;;;;;5092853;28;20237;-55
2023/03/03 05:10:19;;;;;;;39.20;25.00;;;4.40;99.90;;;;;;5093052;28;20200;-57
2023/03/03 05:12:46;;;;;;;39.73;23.63;;;4.50;99.90;;;;;;5092800;28;20311;-55
2023/03/03 05:15:13;;;;;;;37.03;24.03;;;4.50;99.90;;;;;;5092878;28;20200;-55
2023/03/03 05:17:41;;;;;;;37.50;24.60;;;4.60;99.90;;;;;;5092568;28;20231;-56
2023/03/03 05:20:10;;;;;;;39.07;24.67;;;4.60;99.90;;;;;;5093127;28;20208;-56
2023/03/03 05:22:36;;;;;;;36.47;25.17;;;4.50;99.90;;;;;;5093970;28;20228;-57
2023/03/03 05:25:03;;;;;;;41.53;25.70;;;4.50;99.90;;;;;;5093845;28;20211;-56
2023/03/03 05:27:30;;;;;;;38.17;24.80;;;4.60;99.90;;;;;;5092508;28;20201;-56
2023/03/03 05:29:57;;;;;;;39.50;25.37;;;4.60;99.90;;;;;;5092497;28;20238;-57
2023/03/03 05:32:23;;;;;;;38.47;25.40;;;4.60;99.90;;;;;;5092717;28;20231;-56
2023/03/03 05:34:51;;;;;;;39.43;24.03;;;4.70;99.90;;;;;;5096063;28;20208;-56
2023/03/03 05:37:18;;;;;;;37.47;23.53;;;4.70;99.90;;;;;;5096294;28;20243;-56
2023/03/03 05:39:45;;;;;;;42.33;26.80;;;4.80;99.90;;;;;;5096429;28;20242;-56
2023/03/03 05:42:15;;;;;;;52.07;31.87;;;4.90;99.90;;;;;;5096354;28;20223;-58
2023/03/03 05:44:42;;;;;;;38.40;23.73;;;4.90;99.90;;;;;;5096934;28;20211;-57
2023/03/03 05:47:08;;;;;;;44.80;27.97;;;4.90;99.90;;;;;;5096375;28;20204;-56
2023/03/03 05:49:35;;;;;;;38.20;24.13;;;4.90;99.90;;;;;;5096589;28;20209;-56
2023/03/03 05:52:03;;;;;;;38.53;24.50;;;4.90;99.90;;;;;;5096486;28;20581;-57
2023/03/03 05:54:30;;;;;;;37.37;23.30;;;4.90;99.90;;;;;;5098020;28;20208;-56
2023/03/03 05:56:57;;;;;;;39.40;23.73;;;4.80;99.90;;;;;;5096328;28;20211;-57
2023/03/03 05:59:24;;;;;;;38.33;24.50;;;4.80;99.90;;;;;;5096240;28;20238;-57
2023/03/03 06:01:51;;;;;;;42.57;25.47;;;4.80;99.90;;;;;;5096463;28;20212;-55
2023/03/03 06:04:17;;;;;;;37.57;23.60;;;4.90;99.90;;;;;;5096717;28;20211;-56
2023/03/03 06:06:44;;;;;;;40.83;26.00;;;5.00;99.90;;;;;;5096085;28;20200;-55
2023/03/03 06:09:19;;;;;;;38.40;22.87;;;5.10;99.90;;;;;;5096486;28;20204;-57
2023/03/03 06:11:46;;;;;;;40.43;26.13;;;5.00;99.90;;;;;;5095968;28;20219;-56
2023/03/03 06:14:13;;;;;;;34.40;23.60;;;5.00;99.90;;;;;;5095916;28;20574;-57
2023/03/03 06:16:40;;;;;;;42.27;26.23;;;5.00;99.90;;;;;;5095985;28;20486;-57
2023/03/03 06:19:07;;;;;;;37.23;23.27;;;5.10;99.90;;;;;;5095635;28;20228;-57
2023/03/03 06:21:33;;;;;;;38.53;23.47;;;5.20;99.90;;;;;;5095985;28;20215;-57
2023/03/03 06:24:00;;;;;;;40.73;24.13;;;5.30;99.90;;;;;;5096824;28;20228;-59
2023/03/03 06:26:28;;;;;;;41.57;23.03;;;5.40;99.90;;;;;;5096159;28;20200;-58
2023/03/03 06:28:55;;;;;;;38.13;23.33;;;5.50;99.90;;;;;;5096439;28;20207;-58
2023/03/03 06:31:21;;;;;;;32.87;22.60;;;5.40;99.90;;;;;;5096176;28;20664;-58
2023/03/03 06:33:48;;;;;;;36.77;22.77;;;5.20;99.90;;;;;;5096196;28;20220;-57
2023/03/03 06:36:15;;;;;;;35.83;22.50;;;4.90;99.90;;;;;;5095135;28;20580;-58
2023/03/03 06:38:42;;;;;;;34.43;22.47;;;5.00;99.90;;;;;;5095641;28;20221;-58
2023/03/03 06:41:08;;;;;;;38.80;23.00;;;5.10;99.90;;;;;;5095384;28;20203;-58
2023/03/03 06:43:37;;;;;;;35.27;23.33;;;5.40;99.90;;;;;;5095567;28;20224;-58
2023/03/03 06:46:04;;;;;;;35.63;23.10;;;5.50;99.90;;;;;;5094784;28;20628;-58
2023/03/03 06:48:32;;;;;;;37.43;23.63;;;5.70;99.90;;;;;;5095380;28;20205;-58
2023/03/03 06:51:01;;;;;;;36.27;23.13;;;5.70;99.90;;;;;;5095022;28;20230;-58
2023/03/03 06:53:28;;;;;;;34.93;22.93;;;5.80;99.90;;;;;;5095850;28;20232;-57
2023/03/03 06:55:56;;;;;;;35.37;23.03;;;5.70;99.90;;;;;;5095250;28;20204;-57
2023/03/03 06:58:24;;;;;;;33.30;23.07;;;5.70;99.90;;;;;;5095272;28;20310;-58
2023/03/03 07:00:55;;;;;;;43.63;25.63;;;5.70;99.90;;;;;;5094860;28;20200;-57
2023/03/03 07:03:24;;;;;;;36.17;24.13;;;5.80;99.90;;;;;;5094981;28;20232;-57
2023/03/03 07:05:52;;;;;;;35.27;23.27;;;5.90;99.90;;;;;;5095138;28;20208;-59
2023/03/03 07:08:22;;;;;;;39.47;25.40;;;6.00;99.90;;;;;;5096228;28;20635;-59
2023/03/03 07:10:50;;;;;;;34.80;24.37;;;6.10;99.90;;;;;;5095356;28;20211;-58
2023/03/03 07:13:20;;;;;;;38.13;24.13;;;6.20;99.90;;;;;;5096409;28;20596;-61
2023/03/03 07:15:48;;;;;;;35.93;23.20;;;6.20;99.90;;;;;;5095265;28;20204;-59
2023/03/03 07:18:32;;;;;;;39.57;24.47;;;6.40;99.90;;;;;;5095734;28;20267;-60
2023/03/03 07:20:59;;;;;;;35.13;23.37;;;6.50;99.90;;;;;;5095898;28;20265;-59
2023/03/03 07:23:30;;;;;;;37.70;24.23;;;6.60;99.90;;;;;;5097412;28;20271;-58
2023/03/03 07:25:57;;;;;;;35.70;23.60;;;6.70;99.90;;;;;;5095766;28;20672;-59
2023/03/03 07:28:25;;;;;;;34.80;23.73;;;6.80;99.90;;;;;;5095706;28;20197;-60
2023/03/03 07:30:53;;;;;;;55.17;36.13;;;6.90;99.90;;;;;;5095757;28;20200;-60
2023/03/03 07:33:26;;;;;;;38.73;26.00;;;7.10;99.90;;;;;;5095507;28;20231;-60
2023/03/03 07:35:54;;;;;;;43.43;25.87;;;7.30;99.90;;;;;;5095487;28;20204;-58
2023/03/03 07:38:29;;;;;;;35.57;23.70;;;7.50;99.90;;;;;;5094953;28;20224;-60
2023/03/03 07:40:58;;;;;;;33.70;22.13;;;7.50;99.90;;;;;;5095760;28;20200;-60
2023/03/03 07:43:49;;;;;;;32.00;21.43;;;7.70;99.90;;;;;;5096471;28;20232;-59
2023/03/03 07:46:27;;;;;;;35.47;22.23;;;7.70;99.90;;;;;;5092868;28;20294;-59
2023/03/03 07:48:56;;;;;;;34.83;22.73;;;7.90;99.90;;;;;;5095304;28;20204;-60
2023/03/03 07:51:26;;;;;;;36.23;22.80;;;7.90;99.90;;;;;;5095290;28;20208;-60
2023/03/03 07:53:54;;;;;;;33.50;22.27;;;7.80;99.90;;;;;;5096519;28;20236;-60
2023/03/03 07:56:29;;;;;;;41.13;24.20;;;7.70;99.90;;;;;;5096040;28;20203;-63
2023/03/03 07:58:57;;;;;;;41.53;24.77;;;7.40;99.90;;;;;;5095747;28;20786;-60
2023/03/03 08:01:43;;;;;;;35.33;24.17;;;7.40;99.90;;;;;;5095815;28;20204;-59
2023/03/03 08:04:17;;;;;;;36.63;23.40;;;7.70;99.90;;;;;;5095026;28;20189;-60
2023/03/03 08:06:49;;;;;;;34.17;23.93;;;8.00;99.90;;;;;;5094818;28;20208;-60
2023/03/03 08:09:44;;;;;;;36.90;24.97;;;8.30;99.90;;;;;;5096048;28;20208;-60
2023/03/03 08:12:22;;;;;;;36.80;24.03;;;8.30;99.90;;;;;;5094879;28;20228;-60
2023/03/03 08:14:51;;;;;;;39.63;24.43;;;8.30;99.90;;;;;;5094722;28;20203;-59
2023/03/03 08:17:21;;;;;;;35.73;23.33;;;8.00;99.90;;;;;;5094349;28;20208;-58
2023/03/03 08:19:50;;;;;;;38.00;23.63;;;8.00;99.90;;;;;;5094485;28;20224;-59
2023/03/03 08:22:19;;;;;;;35.40;22.60;;;7.70;99.90;;;;;;5094881;28;20224;-59
2023/03/03 08:24:46;;;;;;;35.87;23.77;;;7.50;99.90;;;;;;5094592;28;20204;-59
2023/03/03 08:27:12;;;;;;;38.10;24.27;;;7.50;99.90;;;;;;5094021;28;20200;-58
2023/03/03 08:29:39;;;;;;;34.47;23.27;;;7.40;99.90;;;;;;5094241;28;20790;-58
2023/03/03 08:32:06;;;;;;;35.43;23.67;;;7.30;99.90;;;;;;5094278;28;20216;-58
2023/03/03 08:34:32;;;;;;;37.70;23.27;;;7.10;99.90;;;;;;5094711;28;20572;-59
2023/03/03 08:37:01;;;;;;;33.60;23.23;;;7.10;99.90;;;;;;5093885;28;20695;-59
2023/03/03 08:39:28;;;;;;;40.70;24.97;;;7.10;99.90;;;;;;5094104;28;20284;-58
2023/03/03 08:41:54;;;;;;;33.73;23.57;;;7.20;99.90;;;;;;5095904;28;20215;-59
2023/03/03 08:44:21;;;;;;;37.37;23.27;;;7.40;99.90;;;;;;5094435;28;20211;-57
2023/03/03 08:46:48;;;;;;;39.83;24.43;;;7.40;99.90;;;;;;5092116;28;20208;-55
2023/03/03 08:49:15;;;;;;;36.67;24.13;;;7.20;99.90;;;;;;5092612;28;20648;-55
2023/03/03 08:51:41;;;;;;;36.47;23.33;;;6.90;99.90;;;;;;5092362;28;20219;-55
2023/03/03 08:54:10;;;;;;;36.60;23.23;;;6.60;99.90;;;;;;5092616;28;20246;-55
2023/03/03 08:56:36;;;;;;;34.80;23.33;;;6.40;99.90;;;;;;5092048;28;20207;-56
2023/03/03 08:59:03;;;;;;;38.40;24.43;;;6.50;99.90;;;;;;5092149;28;20233;-54
2023/03/03 09:01:30;;;;;;;35.33;22.17;;;7.00;99.90;;;;;;5092061;28;20204;-56
2023/03/03 09:03:57;;;;;;;35.27;23.00;;;7.40;99.90;;;;;;5092393;28;20687;-55
2023/03/03 09:06:24;;;;;;;33.27;23.13;;;7.20;99.90;;;;;;5092056;28;20208;-56
2023/03/03 09:08:51;;;;;;;35.47;23.50;;;7.40;99.90;;;;;;5094557;28;20206;-55
2023/03/03 09:11:25;;;;;;;35.30;22.97;;;7.20;99.90;;;;;;5096491;28;20200;-55
2023/03/03 09:13:54;;;;;;;33.33;21.37;;;7.00;99.90;;;;;;5096567;28;20289;-56
2023/03/03 09:16:21;;;;;;;39.80;23.30;;;7.10;99.90;;;;;;5096095;28;20212;-56
2023/03/03 09:18:48;;;;;;;37.13;24.10;;;7.60;99.90;;;;;;5096383;28;20699;-55
2023/03/03 09:21:22;;;;;;;35.57;23.43;;;7.70;99.90;;;;;;5096816;28;20208;-57
2023/03/03 09:23:56;;;;;;;37.00;24.73;;;7.40;99.90;;;;;;5096801;28;20288;-56
2023/03/03 09:26:28;;;;;;;34.17;23.93;;;7.40;99.90;;;;;;5096332;28;20202;-56
2023/03/03 09:28:58;;;;;;;35.57;23.83;;;7.50;99.90;;;;;;5096585;28;20200;-57
2023/03/03 09:31:27;;;;;;;35.70;23.17;;;7.90;99.90;;;;;;5096614;28;20233;-57
2023/03/03 09:33:56;;;;;;;35.13;23.23;;;8.50;99.90;;;;;;5096056;28;20699;-54
2023/03/03 09:36:25;;;;;;;33.33;23.57;;;9.30;99.90;;;;;;5095988;28;20201;-56
2023/03/03 09:38:53;;;;;;;34.30;24.13;;;9.60;99.90;;;;;;5096415;28;20216;-56
2023/03/03 09:41:49;;;;;;;35.93;24.07;;;9.80;99.90;;;;;;5095999;28;20684;-56
2023/03/03 09:44:48;;;;;;;36.90;23.53;;;10.30;99.90;;;;;;5091891;28;20208;-55
2023/03/03 09:47:32;;;;;;;32.20;22.47;;;10.90;99.90;;;;;;5092175;28;20192;-56
2023/03/03 09:50:11;;;;;;;33.43;22.73;;;10.80;99.90;;;;;;5094500;28;20567;-56
2023/03/03 09:52:44;;;;;;;34.50;22.60;;;10.50;99.90;;;;;;5094496;28;20640;-56
2023/03/03 09:55:22;;;;;;;32.57;22.53;;;10.50;99.90;;;;;;5094784;28;20204;-55
2023/03/03 09:58:02;;;;;;;34.60;23.13;;;10.60;99.90;;;;;;5094205;28;20561;-55
2023/03/03 10:00:39;;;;;;;34.17;24.00;;;10.80;99.90;;;;;;5094236;28;20263;-56
2023/03/03 10:03:36;;;;;;;34.23;22.73;;;11.20;99.90;;;;;;5094298;28;20634;-55
2023/03/03 10:06:10;;;;;;;33.40;22.63;;;11.40;99.90;;;;;;5094489;28;20515;-55
2023/03/03 10:08:55;;;;;;;33.53;23.33;;;11.50;99.90;;;;;;5094671;28;20208;-55
2023/03/03 10:11:28;;;;;;;31.80;22.13;;;11.40;99.90;;;;;;5094386;28;20580;-56
2023/03/03 10:14:43;;;;;;;32.33;23.37;;;11.10;99.90;;;;;;5094208;28;20764;-57
2023/03/03 10:17:25;;;;;;;33.90;23.60;;;10.90;99.90;;;;;;5094247;28;20254;-54
2023/03/03 10:20:05;;;;;;;32.43;22.37;;;10.80;99.90;;;;;;5093597;28;20232;-56
2023/03/03 10:22:41;;;;;;;35.67;23.13;;;10.80;99.90;;;;;;5093495;28;20233;-55
2023/03/03 10:25:20;;;;;;;34.27;23.60;;;10.80;99.90;;;;;;5093939;28;20218;-56
2023/03/03 10:27:59;;;;;;;30.57;23.07;;;10.60;99.90;;;;;;5093731;28;20851;-56
2023/03/03 10:30:41;;;;;;;36.07;24.17;;;10.40;99.90;;;;;;5094198;28;20200;-56
2023/03/03 10:33:15;;;;;;;33.40;22.70;;;10.20;99.90;;;;;;5093703;28;20266;-56
2023/03/03 10:35:55;;;;;;;33.60;23.63;;;10.00;99.90;;;;;;5093658;28;20216;-56
2023/03/03 10:38:40;;;;;;;33.83;23.03;;;9.80;99.90;;;;;;5093935;28;20204;-56
2023/03/03 10:41:27;;;;;;;32.07;21.83;;;9.80;99.90;;;;;;5094047;28;20204;-55
2023/03/03 10:44:08;;;;;;;30.43;22.20;;;10.00;99.90;;;;;;5093885;28;20234;-55
2023/03/03 10:46:50;;;;;;;31.53;22.57;;;10.50;99.90;;;;;;5093058;28;20207;-56
2023/03/03 10:49:33;;;;;;;28.37;21.60;;;10.80;99.90;;;;;;5093439;28;20211;-55
2023/03/03 10:52:14;;;;;;;29.57;21.30;;;11.00;99.90;;;;;;5093592;28;20227;-56
2023/03/03 10:54:57;;;;;;;31.10;21.17;;;11.50;99.90;;;;;;5093829;28;20211;-55
2023/03/03 10:57:30;;;;;;;30.50;20.10;;;12.00;99.90;;;;;;5093113;28;20261;-56
2023/03/03 11:00:16;;;;;;;27.17;19.83;;;12.40;99.90;;;;;;5093122;28;20227;-59
2023/03/03 11:02:56;;;;;;;27.50;19.57;;;12.70;99.90;;;;;;5091320;28;20251;-60
2023/03/03 11:05:32;;;;;;;28.83;19.93;;;12.70;99.90;;;;;;5093823;28;20628;-60
2023/03/03 11:08:03;;;;;;;29.67;20.17;;;12.30;99.90;;;;;;5093029;28;20211;-58
2023/03/03 11:10:46;;;;;;;25.47;19.97;;;12.00;99.90;;;;;;5092640;28;20204;-59
2023/03/03 11:13:22;;;;;;;28.13;19.67;;;11.80;99.90;;;;;;5092646;28;20228;-58
2023/03/03 11:16:18;;;;;;;29.87;19.37;;;11.60;99.90;;;;;;5092303;28;20239;-56
2023/03/03 11:19:00;;;;;;;27.07;19.70;;;11.60;99.90;;;;;;5092405;28;20208;-57
2023/03/03 11:21:33;;;;;;;28.43;19.97;;;11.50;99.90;;;;;;5092709;28;20211;-58
2023/03/03 11:24:18;;;;;;;28.50;20.07;;;11.50;99.90;;;;;;5092319;28;20246;-57
2023/03/03 11:27:04;;;;;;;25.13;18.40;;;11.40;99.90;;;;;;5091094;28;20204;-58
2023/03/03 11:29:45;;;;;;;28.33;19.03;;;11.30;99.90;;;;;;5090618;28;20204;-57
2023/03/03 11:32:24;;;;;;;26.07;18.47;;;11.60;99.90;;;;;;5091308;28;20231;-57
2023/03/03 11:35:00;;;;;;;23.40;17.83;;;12.10;99.90;;;;;;5091310;28;20208;-57
2023/03/03 11:37:35;;;;;;;25.50;18.83;;;12.70;99.90;;;;;;5091814;28;20548;-55
2023/03/03 11:40:12;;;;;;;27.17;19.20;;;12.90;99.90;;;;;;5092253;28;20227;-57
2023/03/03 11:42:53;;;;;;;26.20;18.10;;;12.90;99.90;;;;;;5091929;28;20256;-57
2023/03/03 11:45:24;;;;;;;30.17;20.27;;;13.00;99.70;;;;;;5092145;28;20258;-57
2023/03/03 11:47:59;;;;;;;25.27;18.67;;;13.30;99.90;;;;;;5091998;28;20572;-62
2023/03/03 11:50:31;;;;;;;24.87;18.17;;;13.80;99.20;;;;;;5091809;28;20209;-57
2023/03/03 11:53:13;;;;;;;24.70;17.93;;;13.90;98.30;;;;;;5091927;28;20243;-58
2023/03/03 11:55:45;;;;;;;23.77;18.30;;;14.00;98.00;;;;;;5092045;28;20679;-56
2023/03/03 11:58:16;;;;;;;26.03;17.50;;;14.20;98.30;;;;;;5092028;28;20587;-61
2023/03/03 12:00:46;;;;;;;24.50;18.77;;;14.30;97.70;;;;;;5091829;28;20220;-61
2023/03/03 12:03:27;;;;;;;24.30;18.43;;;14.40;97.60;;;;;;5091611;28;20736;-58
2023/03/03 12:06:22;;;;;;;23.70;17.63;;;14.40;97.20;;;;;;5091980;28;20299;-55
2023/03/03 12:09:09;;;;;;;47.77;35.60;;;14.60;96.70;;;;;;5092147;28;20210;-54
2023/03/03 12:11:46;;;;;;;26.37;17.90;;;14.70;96.70;;;;;;5091568;28;20207;-56
2023/03/03 12:14:24;;;;;;;21.57;17.13;;;14.90;96.00;;;;;;5091504;28;20753;-55
2023/03/03 12:16:56;;;;;;;22.63;16.93;;;14.90;95.50;;;;;;5092101;28;20208;-55
2023/03/03 12:19:33;;;;;;;23.57;17.33;;;14.60;95.60;;;;;;5092174;28;20558;-56
2023/03/03 12:22:22;;;;;;;22.80;17.13;;;14.50;95.50;;;;;;5092316;28;20212;-57
2023/03/03 12:25:04;;;;;;;21.03;16.53;;;14.30;95.70;;;;;;5091880;28;20212;-55
2023/03/03 12:27:36;;;;;;;21.57;15.67;;;14.00;96.10;;;;;;5091800;28;20204;-55
2023/03/03 12:30:15;;;;;;;21.23;16.27;;;14.10;95.60;;;;;;5092015;28;20211;-54
2023/03/03 12:33:00;;;;;;;22.57;16.27;;;13.90;95.40;;;;;;5091539;28;20220;-55
2023/03/03 12:35:34;;;;;;;23.13;16.90;;;13.80;95.80;;;;;;5091975;28;20210;-55
2023/03/03 12:38:10;;;;;;;22.87;17.57;;;13.90;95.60;;;;;;5091050;28;20200;-56
2023/03/03 12:40:44;;;;;;;23.00;16.57;;;14.10;95.30;;;;;;5091349;28;20220;-56
2023/03/03 12:43:22;;;;;;;22.00;15.90;;;14.20;95.40;;;;;;5090762;28;20366;-56
2023/03/03 12:45:58;;;;;;;30.37;18.93;;;14.30;95.00;;;;;;5089266;28;20227;-57
2023/03/03 12:48:32;;;;;;;22.83;17.03;;;14.50;94.90;;;;;;5091150;28;20223;-57
2023/03/03 12:51:06;;;;;;;21.57;16.63;;;14.70;94.40;;;;;;5090958;28;20686;-56
2023/03/03 12:53:52;;;;;;;23.47;16.80;;;14.70;94.40;;;;;;5090898;28;20258;-55
2023/03/03 12:56:27;;;;;;;23.17;16.20;;;14.70;94.10;;;;;;5091574;28;20399;-63